createdAt,value
2022-07-25T00:02:07.524Z,65.81
2022-07-25T00:04:35.761Z,65.61
2022-07-25T00:07:03.140Z,65.75
2022-07-25T00:09:29.875Z,66.07
2022-07-25T00:11:56.705Z,66.41
2022-07-25T00:14:23.485Z,66.28
2022-07-25T00:16:50.423Z,66.72
2022-07-25T00:19:18.180Z,66.91
2022-07-25T00:21:45.056Z,66.65
2022-07-25T00:24:11.955Z,67.00
2022-07-25T00:26:40.520Z,67.16
2022-07-25T00:29:07.978Z,67.32
2022-07-25T00:31:35.310Z,67.51
2022-07-25T00:34:03.699Z,67.55
2022-07-25T00:36:30.957Z,67.45
2022-07-25T00:38:57.760Z,67.46
2022-07-25T00:41:24.616Z,67.75
2022-07-25T00:43:51.406Z,67.80
2022-07-25T00:46:18.920Z,68.15
2022-07-25T00:48:47.694Z,68.30
2022-07-25T00:51:16.909Z,68.32
2022-07-25T00:53:45.437Z,68.55
2022-07-25T00:56:12.590Z,68.71
2022-07-25T00:58:39.391Z,68.62
2022-07-25T01:01:06.536Z,68.96
2022-07-25T01:03:33.381Z,68.69
2022-07-25T01:06:00.246Z,69.51
2022-07-25T01:08:27.597Z,69.51
2022-07-25T01:10:54.499Z,69.51
2022-07-25T01:13:21.365Z,70.12
2022-07-25T01:15:48.201Z,70.04
2022-07-25T01:18:15.037Z,70.28
2022-07-25T01:20:42.145Z,70.89
2022-07-25T01:23:08.986Z,70.42
2022-07-25T01:25:35.813Z,71.00
2022-07-25T01:28:02.937Z,71.19
2022-07-25T01:30:29.713Z,71.41
2022-07-25T01:32:56.534Z,71.80
2022-07-25T01:35:23.662Z,71.55
2022-07-25T01:37:50.647Z,71.58
2022-07-25T01:40:17.564Z,71.47
2022-07-25T01:42:45.140Z,71.95
2022-07-25T01:45:13.352Z,71.81
2022-07-25T01:47:40.780Z,71.64
2022-07-25T01:50:08.890Z,71.55
2022-07-25T01:52:37.560Z,72.12
2022-07-25T01:55:05.244Z,71.55
2022-07-25T01:57:33.171Z,72.07
2022-07-25T02:00:00.332Z,71.63
2022-07-25T02:02:27.489Z,71.86
2022-07-25T02:04:54.551Z,72.19
2022-07-25T02:07:21.371Z,71.90
2022-07-25T02:09:51.008Z,72.11
2022-07-25T02:12:20.141Z,72.27
2022-07-25T02:14:46.943Z,72.29
2022-07-25T02:17:13.729Z,72.58
2022-07-25T02:19:40.614Z,72.23
2022-07-25T02:22:07.576Z,72.37
2022-07-25T02:24:34.579Z,72.34
2022-07-25T02:27:01.329Z,72.03
2022-07-25T02:29:28.145Z,72.22
2022-07-25T02:31:55.101Z,72.23
2022-07-25T02:34:21.959Z,71.88
2022-07-25T02:36:48.860Z,72.18
2022-07-25T02:39:15.983Z,72.12
2022-07-25T02:41:44.077Z,72.10
2022-07-25T02:44:10.946Z,72.11
2022-07-25T02:46:37.721Z,71.82
2022-07-25T02:49:04.966Z,72.16
2022-07-25T02:51:31.867Z,72.51
2022-07-25T02:53:59.122Z,72.64
2022-07-25T02:56:29.864Z,72.64
2022-07-25T02:58:57.573Z,72.32
2022-07-25T03:01:24.538Z,72.61
2022-07-25T03:03:51.907Z,72.50
2022-07-25T03:06:18.782Z,72.82
2022-07-25T03:08:45.548Z,72.95
2022-07-25T03:11:14.245Z,72.88
2022-07-25T03:13:41.060Z,73.23
2022-07-25T03:16:08.627Z,73.27
2022-07-25T03:18:35.602Z,73.54
2022-07-25T03:21:02.582Z,73.50
2022-07-25T03:23:31.031Z,73.78
2022-07-25T03:25:58.730Z,73.99
2022-07-25T03:28:25.610Z,74.00
2022-07-25T03:30:53.241Z,74.10
2022-07-25T03:33:20.307Z,74.29
2022-07-25T03:35:47.282Z,73.91
2022-07-25T03:38:14.066Z,73.89
2022-07-25T03:40:40.939Z,74.27
2022-07-25T03:43:07.759Z,74.07
2022-07-25T03:45:34.765Z,74.12
2022-07-25T03:48:02.084Z,74.40
2022-07-25T03:50:28.807Z,74.50
2022-07-25T03:52:55.686Z,74.55
2022-07-25T03:55:22.427Z,74.27
2022-07-25T03:57:49.193Z,74.63
2022-07-25T04:00:17.704Z,74.42
2022-07-25T04:02:44.896Z,74.16
2022-07-25T04:05:11.997Z,74.16
2022-07-25T04:07:39.583Z,74.25
2022-07-25T04:10:08.458Z,74.23
2022-07-25T04:12:35.556Z,74.03
2022-07-25T04:15:02.348Z,73.81
2022-07-25T04:17:29.197Z,73.48
2022-07-25T04:19:56.154Z,73.48
2022-07-25T04:22:23.487Z,73.30
2022-07-25T04:24:50.344Z,73.26
2022-07-25T04:27:17.123Z,73.11
2022-07-25T04:29:43.913Z,73.06
2022-07-25T04:32:10.886Z,72.23
2022-07-25T04:34:37.754Z,71.88
2022-07-25T04:37:04.758Z,71.82
2022-07-25T04:39:32.011Z,71.55
2022-07-25T04:41:58.984Z,71.97
2022-07-25T04:44:25.926Z,71.59
2022-07-25T04:46:52.870Z,71.51
2022-07-25T04:49:19.760Z,71.36
2022-07-25T04:51:46.669Z,71.02
2022-07-25T04:54:13.553Z,70.92
2022-07-25T04:56:40.539Z,70.47
2022-07-25T04:59:07.413Z,70.04
2022-07-25T05:01:35.536Z,69.75
2022-07-25T05:04:02.723Z,69.71
2022-07-25T05:06:29.703Z,69.73
2022-07-25T05:08:56.501Z,69.65
2022-07-25T05:11:23.305Z,69.56
2022-07-25T05:13:50.051Z,69.47
2022-07-25T05:16:16.896Z,69.80
2022-07-25T05:18:43.732Z,69.83
2022-07-25T05:21:14.218Z,69.66
2022-07-25T05:23:41.412Z,69.59
2022-07-25T05:26:08.437Z,69.60
2022-07-25T05:28:35.452Z,69.33
2022-07-25T05:31:02.469Z,69.55
2022-07-25T05:33:29.486Z,69.45
2022-07-25T05:35:56.470Z,69.51
2022-07-25T05:38:23.361Z,69.21
2022-07-25T05:40:52.259Z,69.07
2022-07-25T05:43:19.734Z,68.76
2022-07-25T05:45:47.491Z,68.82
2022-07-25T05:48:15.532Z,68.97
2022-07-25T05:50:42.527Z,68.79
2022-07-25T05:53:09.352Z,68.66
2022-07-25T05:55:40.764Z,68.43
2022-07-25T05:58:09.528Z,68.79
2022-07-25T06:00:37.514Z,68.48
2022-07-25T06:03:04.615Z,69.29
2022-07-25T06:05:32.120Z,69.29
2022-07-25T06:07:58.939Z,68.43
2022-07-25T06:10:25.880Z,68.12
2022-07-25T06:12:53.434Z,68.16
2022-07-25T06:15:22.861Z,68.03
2022-07-25T06:17:53.801Z,67.51
2022-07-25T06:20:20.929Z,66.84
2022-07-25T06:22:47.875Z,67.20
2022-07-25T06:25:15.245Z,67.63
2022-07-25T06:27:42.896Z,67.70
2022-07-25T06:30:19.751Z,67.48
2022-07-25T06:32:49.183Z,67.40
2022-07-25T06:35:17.453Z,67.84
2022-07-25T06:37:44.454Z,68.84
2022-07-25T06:40:11.547Z,69.07
2022-07-25T06:42:44.911Z,69.57
2022-07-25T06:45:14.034Z,69.61
2022-07-25T06:47:43.021Z,69.82
2022-07-25T06:50:15.386Z,69.01
2022-07-25T06:52:42.742Z,69.04
2022-07-25T06:55:11.896Z,68.80
2022-07-25T06:57:39.306Z,68.57
2022-07-25T07:00:09.979Z,68.19
2022-07-25T07:02:56.838Z,68.04
2022-07-25T07:05:28.290Z,67.93
2022-07-25T07:07:56.173Z,68.01
2022-07-25T07:10:23.954Z,67.51
2022-07-25T07:12:51.757Z,67.66
2022-07-25T07:15:18.588Z,67.94
2022-07-25T07:17:45.380Z,68.03
2022-07-25T07:20:12.370Z,68.28
2022-07-25T07:22:48.831Z,69.00
2022-07-25T07:25:18.744Z,68.87
2022-07-25T07:27:47.673Z,69.29
2022-07-25T07:30:15.096Z,68.73
2022-07-25T07:32:43.195Z,69.22
2022-07-25T07:35:11.392Z,69.17
2022-07-25T07:37:43.403Z,68.29
2022-07-25T07:40:17.957Z,68.80
2022-07-25T07:42:48.946Z,68.62
2022-07-25T07:45:24.794Z,67.15
2022-07-25T07:47:55.116Z,67.45
2022-07-25T07:50:25.727Z,66.14
2022-07-25T07:52:54.637Z,65.67
2022-07-25T07:55:40.911Z,65.78
2022-07-25T07:58:07.879Z,66.75
2022-07-25T08:00:36.319Z,66.97
2022-07-25T08:03:03.790Z,67.20
2022-07-25T08:05:38.525Z,67.27
2022-07-25T08:08:06.963Z,66.10
2022-07-25T08:10:37.573Z,65.46
2022-07-25T08:13:14.320Z,64.08
2022-07-25T08:15:43.899Z,62.56
2022-07-25T08:18:17.344Z,62.70
2022-07-25T08:20:50.616Z,61.86
2022-07-25T08:23:18.946Z,60.59
2022-07-25T08:25:47.644Z,60.50
2022-07-25T08:28:14.885Z,60.01
2022-07-25T08:30:42.483Z,59.71
2022-07-25T08:33:16.329Z,58.36
2022-07-25T08:35:53.504Z,58.65
2022-07-25T08:38:25.683Z,57.00
2022-07-25T08:40:54.504Z,56.62
2022-07-25T08:43:22.506Z,56.66
2022-07-25T08:45:54.742Z,57.86
2022-07-25T08:48:25.501Z,58.55
2022-07-25T08:50:57.128Z,60.28
2022-07-25T08:53:33.570Z,60.50
2022-07-25T08:56:05.373Z,60.71
2022-07-25T08:58:35.637Z,61.41
2022-07-25T09:01:02.541Z,61.08
2022-07-25T09:03:29.367Z,60.91
2022-07-25T09:05:56.454Z,60.65
2022-07-25T09:08:23.322Z,60.98
2022-07-25T09:10:52.497Z,60.74
2022-07-25T09:13:22.308Z,60.70
2022-07-25T09:15:59.797Z,59.40
2022-07-25T09:18:28.172Z,60.55
2022-07-25T09:21:01.512Z,60.07
2022-07-25T09:23:32.052Z,58.62
2022-07-25T09:26:14.645Z,59.02
2022-07-25T09:28:51.265Z,58.58
2022-07-25T09:31:21.537Z,58.73
2022-07-25T09:33:56.950Z,58.07
2022-07-25T09:36:24.247Z,58.34
2022-07-25T09:38:54.531Z,56.37
2022-07-25T09:41:22.463Z,57.39
2022-07-25T09:43:49.258Z,57.72
2022-07-25T09:46:16.088Z,57.92
2022-07-25T09:48:45.464Z,58.95
2022-07-25T09:51:12.544Z,58.26
2022-07-25T09:53:40.650Z,57.43
2022-07-25T09:56:08.434Z,57.18
2022-07-25T09:58:35.330Z,56.61
2022-07-25T10:01:07.153Z,55.62
2022-07-25T10:04:14.616Z,55.46
2022-07-25T10:07:04.191Z,56.24
2022-07-25T10:09:32.587Z,55.70
2022-07-25T10:12:12.929Z,55.43
2022-07-25T10:14:40.897Z,54.13
2022-07-25T10:17:08.702Z,54.34
2022-07-25T10:19:38.438Z,54.54
2022-07-25T10:22:05.409Z,55.21
2022-07-25T10:24:38.911Z,54.83
2022-07-25T10:27:23.536Z,54.51
2022-07-25T10:29:54.994Z,53.63
2022-07-25T10:32:32.432Z,53.53
2022-07-25T10:34:59.244Z,53.84
2022-07-25T10:37:29.474Z,54.21
2022-07-25T10:39:56.605Z,54.13
2022-07-25T10:42:24.205Z,55.23
2022-07-25T10:44:57.525Z,55.35
2022-07-25T10:47:28.204Z,55.34
2022-07-25T10:53:07.845Z,53.21
2022-07-25T10:55:36.820Z,52.05
2022-07-25T10:58:17.739Z,51.57
2022-07-25T11:00:45.221Z,51.37
2022-07-25T11:03:17.849Z,51.93
2022-07-25T11:05:47.872Z,51.33
2022-07-25T11:08:22.873Z,50.14
2022-07-25T11:10:53.445Z,49.82
2022-07-25T11:13:20.752Z,49.22
2022-07-25T11:15:48.221Z,49.10
2022-07-25T11:18:15.152Z,50.28
2022-07-25T11:20:41.934Z,51.23
2022-07-25T11:23:08.735Z,51.35
2022-07-25T11:25:35.751Z,51.16
2022-07-25T11:28:03.798Z,50.28
2022-07-25T11:30:31.147Z,49.70
2022-07-25T11:33:03.343Z,50.69
2022-07-25T11:35:33.142Z,51.46
2022-07-25T11:38:02.387Z,52.58
2022-07-25T11:40:30.871Z,53.14
2022-07-25T11:42:59.753Z,52.43
2022-07-25T11:45:29.097Z,51.72
2022-07-25T11:48:09.317Z,52.12
2022-07-25T11:50:44.401Z,51.73
2022-07-25T11:53:14.821Z,51.38
2022-07-25T11:55:43.331Z,51.66
2022-07-25T11:58:13.278Z,51.37
2022-07-25T12:00:44.459Z,51.13
2022-07-25T12:03:20.296Z,51.83
2022-07-25T12:05:49.915Z,51.16
2022-07-25T12:08:21.094Z,51.76
2022-07-25T12:10:51.161Z,52.62
2022-07-25T12:13:30.341Z,51.77
2022-07-25T12:15:59.916Z,52.12
2022-07-25T12:18:27.848Z,53.22
2022-07-25T12:20:54.719Z,53.01
2022-07-25T12:23:24.431Z,53.82
2022-07-25T12:25:51.970Z,54.54
2022-07-25T12:28:18.769Z,54.03
2022-07-25T12:30:54.329Z,54.27
2022-07-25T12:33:24.207Z,53.55
2022-07-25T12:35:51.078Z,53.85
2022-07-25T12:38:17.863Z,54.27
2022-07-25T12:40:44.726Z,52.83
2022-07-25T12:43:11.631Z,52.64
2022-07-25T12:45:38.454Z,54.18
2022-07-25T12:48:05.769Z,54.55
2022-07-25T12:50:32.561Z,54.08
2022-07-25T12:52:59.426Z,54.60
2022-07-25T12:55:26.647Z,54.93
2022-07-25T12:57:56.047Z,55.80
2022-07-25T13:00:23.833Z,55.75
2022-07-25T13:02:53.321Z,56.15
2022-07-25T13:05:20.546Z,55.99
2022-07-25T13:07:49.121Z,56.37
2022-07-25T13:10:16.936Z,56.16
2022-07-25T13:12:43.894Z,57.06
2022-07-25T13:15:11.138Z,56.83
2022-07-25T13:17:40.287Z,57.51
2022-07-25T13:20:08.595Z,56.63
2022-07-25T13:22:35.594Z,56.23
2022-07-25T13:25:02.485Z,54.40
2022-07-25T13:27:29.530Z,53.85
2022-07-25T13:29:57.173Z,52.39
2022-07-25T13:32:24.301Z,52.01
2022-07-25T13:34:51.098Z,51.28
2022-07-25T13:37:18.014Z,49.63
2022-07-25T13:39:45.068Z,49.38
2022-07-25T13:42:11.958Z,50.34
2022-07-25T13:44:38.838Z,50.71
2022-07-25T13:47:05.925Z,51.23
2022-07-25T13:49:32.852Z,52.37
2022-07-25T13:51:59.662Z,53.20
2022-07-25T13:54:26.542Z,54.06
2022-07-25T13:56:53.496Z,52.68
2022-07-25T13:59:21.738Z,52.66
2022-07-25T14:01:50.052Z,52.53
2022-07-25T14:04:17.176Z,52.59
2022-07-25T14:06:44.298Z,52.28
2022-07-25T14:09:11.414Z,51.97
2022-07-25T14:11:38.587Z,51.91
2022-07-25T14:14:05.470Z,52.93
2022-07-25T14:16:33.771Z,53.02
2022-07-25T14:19:01.344Z,53.99
2022-07-25T14:21:28.700Z,51.91
2022-07-25T14:23:55.485Z,50.29
2022-07-25T14:26:22.470Z,49.64
2022-07-25T14:28:49.364Z,49.04
2022-07-25T14:31:16.502Z,47.60
2022-07-25T14:33:43.470Z,47.70
2022-07-25T14:36:10.924Z,47.17
2022-07-25T14:38:37.825Z,46.79
2022-07-25T14:41:09.182Z,46.96
2022-07-25T14:43:40.264Z,46.16
2022-07-25T14:46:08.240Z,46.08
2022-07-25T14:48:39.081Z,46.07
2022-07-25T14:51:07.690Z,46.91
2022-07-25T14:53:35.418Z,46.26
2022-07-25T14:56:05.037Z,46.27
2022-07-25T14:58:33.530Z,46.61
2022-07-25T15:01:00.570Z,46.96
2022-07-25T15:03:27.526Z,47.44
2022-07-25T15:05:54.684Z,47.03
2022-07-25T15:08:22.097Z,47.08
2022-07-25T15:10:49.288Z,47.55
2022-07-25T15:13:32.403Z,47.93
2022-07-25T15:16:00.808Z,47.93
2022-07-25T15:18:28.334Z,48.65
2022-07-25T15:20:55.426Z,48.34
2022-07-25T15:23:24.833Z,47.96
2022-07-25T15:26:01.735Z,47.34
2022-07-25T15:28:29.056Z,46.68
2022-07-25T15:30:55.952Z,46.37
2022-07-25T15:33:22.710Z,45.89
2022-07-25T15:35:49.641Z,46.15
2022-07-25T15:38:17.965Z,46.11
2022-07-25T15:40:45.386Z,46.87
2022-07-25T15:43:12.761Z,47.08
2022-07-25T15:45:42.227Z,46.15
2022-07-25T15:48:11.722Z,45.22
2022-07-25T15:50:43.944Z,45.66
2022-07-25T15:53:12.062Z,45.71
2022-07-25T15:55:40.908Z,46.18
2022-07-25T15:58:09.886Z,46.35
2022-07-25T16:00:38.542Z,45.91
2022-07-25T16:03:06.796Z,45.21
2022-07-25T16:05:34.209Z,44.87
2022-07-25T16:08:02.316Z,43.70
2022-07-25T16:10:32.161Z,43.93
2022-07-25T16:12:59.727Z,43.11
2022-07-25T16:15:27.313Z,44.00
2022-07-25T16:18:00.209Z,44.70
2022-07-25T16:20:29.712Z,44.35
2022-07-25T16:22:57.782Z,45.03
2022-07-25T16:25:26.110Z,44.80
2022-07-25T16:27:53.748Z,44.11
2022-07-25T16:30:20.919Z,44.36
2022-07-25T16:32:47.915Z,45.08
2022-07-25T16:35:15.237Z,45.53
2022-07-25T16:37:42.536Z,45.08
2022-07-25T16:40:10.526Z,46.15
2022-07-25T16:42:37.274Z,45.66
2022-07-25T16:45:04.882Z,46.00
2022-07-25T16:47:31.819Z,46.34
2022-07-25T16:49:58.621Z,46.27
2022-07-25T16:52:25.484Z,47.08
2022-07-25T16:54:52.796Z,46.59
2022-07-25T16:57:20.096Z,46.53
2022-07-25T16:59:53.220Z,46.40
2022-07-25T17:02:23.882Z,46.89
2022-07-25T17:04:54.665Z,46.93
2022-07-25T17:07:21.672Z,47.39
2022-07-25T17:09:48.572Z,47.83
2022-07-25T17:12:17.397Z,47.92
2022-07-25T17:14:45.162Z,47.64
2022-07-25T17:17:12.567Z,47.73
2022-07-25T17:19:39.986Z,47.52
2022-07-25T17:22:08.024Z,47.27
2022-07-25T17:24:36.184Z,47.29
2022-07-25T17:27:03.878Z,47.69
2022-07-25T17:29:30.735Z,47.27
2022-07-25T17:31:58.008Z,47.50
2022-07-25T17:34:26.741Z,47.47
2022-07-25T17:36:54.530Z,47.77
2022-07-25T17:39:21.717Z,47.48
2022-07-25T17:41:51.932Z,47.34
2022-07-25T17:44:19.430Z,46.52
2022-07-25T17:46:46.961Z,46.69
2022-07-25T17:49:13.919Z,46.97
2022-07-25T17:51:40.813Z,46.66
2022-07-25T17:54:07.873Z,47.05
2022-07-25T17:56:34.958Z,47.09
2022-07-25T17:59:02.361Z,47.99
2022-07-25T18:01:29.412Z,49.23
2022-07-25T18:03:56.489Z,50.35
2022-07-25T18:06:27.783Z,51.68
2022-07-25T18:08:57.271Z,52.08
2022-07-25T18:11:24.266Z,52.53
2022-07-25T18:13:51.101Z,53.02
2022-07-25T18:16:18.070Z,53.65
2022-07-25T18:18:44.970Z,54.14
2022-07-25T18:21:11.789Z,54.27
2022-07-25T18:23:38.637Z,54.36
2022-07-25T18:26:05.551Z,54.84
2022-07-25T18:28:32.434Z,55.42
2022-07-25T18:30:59.342Z,55.79
2022-07-25T18:33:26.443Z,56.60
2022-07-25T18:35:53.258Z,56.91
2022-07-25T18:38:20.275Z,59.98
2022-07-25T18:40:47.069Z,60.21
2022-07-25T18:43:14.118Z,61.70
2022-07-25T18:45:42.145Z,61.57
2022-07-25T18:48:09.712Z,61.93
2022-07-25T18:50:36.545Z,61.84
2022-07-25T18:53:03.721Z,61.88
2022-07-25T18:55:30.554Z,62.21
2022-07-25T18:57:57.394Z,62.19
2022-07-25T19:00:24.217Z,61.17
2022-07-25T19:02:51.268Z,60.81
2022-07-25T19:05:18.275Z,60.75
2022-07-25T19:07:45.497Z,60.69
2022-07-25T19:10:12.350Z,60.66
2022-07-25T19:12:40.374Z,60.65
2022-07-25T19:15:08.174Z,60.62
2022-07-25T19:17:37.099Z,59.67
2022-07-25T19:20:05.694Z,59.31
2022-07-25T19:22:32.531Z,59.25
2022-07-25T19:25:01.451Z,59.17
2022-07-25T19:27:28.940Z,59.08
2022-07-25T19:29:55.898Z,58.81
2022-07-25T19:32:22.801Z,58.73
2022-07-25T19:34:49.711Z,59.03
2022-07-25T19:37:16.612Z,59.25
2022-07-25T19:39:43.577Z,59.43
2022-07-25T19:42:12.226Z,59.26
2022-07-25T19:44:39.588Z,59.52
2022-07-25T19:47:11.404Z,59.46
2022-07-25T19:49:40.151Z,59.92
2022-07-25T19:52:08.713Z,59.80
2022-07-25T19:54:35.850Z,59.87
2022-07-25T19:57:02.696Z,59.91
2022-07-25T19:59:29.794Z,59.87
2022-07-25T20:01:56.888Z,60.10
2022-07-25T20:04:23.865Z,60.48
2022-07-25T20:06:50.747Z,60.58
2022-07-25T20:09:17.917Z,61.13
2022-07-25T20:11:44.745Z,61.22
2022-07-25T20:14:11.664Z,62.02
2022-07-25T20:16:39.990Z,62.39
2022-07-25T20:19:11.099Z,63.01
2022-07-25T20:21:39.233Z,63.40
2022-07-25T20:24:07.286Z,63.58
2022-07-25T20:26:34.833Z,63.71
2022-07-25T20:29:02.182Z,64.02
2022-07-25T20:31:28.999Z,64.26
2022-07-25T20:33:55.819Z,64.33
2022-07-25T20:36:22.695Z,64.62
2022-07-25T20:38:49.945Z,64.64
2022-07-25T20:41:16.780Z,65.30
2022-07-25T20:43:45.881Z,65.57
2022-07-25T20:46:13.032Z,66.10
2022-07-25T20:48:39.998Z,66.38
2022-07-25T20:51:07.291Z,66.75
2022-07-25T20:53:34.152Z,66.89
2022-07-25T20:56:02.519Z,67.32
2022-07-25T20:58:29.386Z,67.53
2022-07-25T21:00:56.420Z,67.93
2022-07-25T21:03:23.599Z,68.26
2022-07-25T21:05:50.430Z,68.63
2022-07-25T21:08:17.667Z,68.66
2022-07-25T21:10:44.594Z,69.08
2022-07-25T21:13:11.428Z,69.38
2022-07-25T21:15:38.805Z,69.43
2022-07-25T21:18:05.829Z,69.83
2022-07-25T21:20:32.663Z,70.31
2022-07-25T21:22:59.535Z,70.74
2022-07-25T21:25:26.696Z,71.27
2022-07-25T21:27:53.552Z,71.56
2022-07-25T21:30:20.333Z,71.98
2022-07-25T21:32:47.240Z,72.60
2022-07-25T21:35:14.016Z,72.96
2022-07-25T21:37:40.895Z,73.33
2022-07-25T21:40:08.966Z,73.51
2022-07-25T21:42:36.893Z,73.90
2022-07-25T21:45:04.969Z,74.52
2022-07-25T21:47:31.933Z,74.57
2022-07-25T21:50:23.193Z,74.85
2022-07-25T21:52:53.019Z,75.06
2022-07-25T21:55:20.858Z,75.16
2022-07-25T21:57:48.915Z,75.46
2022-07-25T22:00:16.071Z,75.54
2022-07-25T22:02:45.648Z,75.67
2022-07-25T22:05:14.776Z,75.78
2022-07-25T22:07:43.841Z,76.10
2022-07-25T22:10:13.526Z,76.34
2022-07-25T22:12:41.457Z,76.35
2022-07-25T22:15:12.039Z,76.72
2022-07-25T22:17:49.186Z,76.94
2022-07-25T22:20:18.853Z,77.13
2022-07-25T22:22:48.217Z,77.32
2022-07-25T22:25:16.968Z,77.35
2022-07-25T22:27:44.831Z,77.71
2022-07-25T22:30:18.709Z,77.83
2022-07-25T22:32:48.170Z,77.52
2022-07-25T22:35:15.582Z,77.91
2022-07-25T22:37:44.553Z,78.26
2022-07-25T22:40:12.728Z,78.31
2022-07-25T22:42:39.640Z,78.46
2022-07-25T22:45:07.920Z,78.72
2022-07-25T22:47:34.795Z,79.46
2022-07-25T22:50:01.691Z,79.32
2022-07-25T22:52:28.622Z,79.83
2022-07-25T22:54:55.394Z,80.12
2022-07-25T22:57:22.313Z,80.01
2022-07-25T22:59:50.136Z,80.29
2022-07-25T23:02:17.082Z,80.43
2022-07-25T23:04:43.945Z,80.52
2022-07-25T23:07:10.861Z,80.73
2022-07-25T23:09:37.641Z,81.21
2022-07-25T23:12:05.549Z,81.20
2022-07-25T23:14:32.448Z,81.57
2022-07-25T23:17:17.042Z,81.34
2022-07-25T23:19:45.983Z,81.80
2022-07-25T23:22:12.837Z,81.93
2022-07-25T23:24:40.054Z,82.17
2022-07-25T23:27:07.081Z,82.03
2022-07-25T23:29:33.998Z,82.11
2022-07-25T23:32:01.223Z,82.14
2022-07-25T23:34:28.137Z,81.88
2022-07-25T23:36:55.090Z,82.19
2022-07-25T23:39:22.115Z,81.89
2022-07-25T23:41:49.304Z,82.43
2022-07-25T23:44:16.435Z,82.32
2022-07-25T23:46:43.463Z,82.49
2022-07-25T23:49:13.116Z,82.59
2022-07-25T23:51:40.322Z,82.36
2022-07-25T23:54:07.175Z,82.81
2022-07-25T23:56:34.014Z,82.90
2022-07-25T23:59:00.882Z,82.80
